createdAt,value
2022-12-25T00:01:38.361Z,9.15
2022-12-25T00:04:08.337Z,9.08
2022-12-25T00:06:37.757Z,9.09
2022-12-25T00:09:06.254Z,9.21
2022-12-25T00:11:34.813Z,9.19
2022-12-25T00:14:03.392Z,9.12
2022-12-25T00:16:32.036Z,9.17
2022-12-25T00:19:01.275Z,9.12
2022-12-25T00:21:31.824Z,9.10
2022-12-25T00:24:01.681Z,9.04
2022-12-25T00:26:31.215Z,9.12
2022-12-25T00:29:00.042Z,9.07
2022-12-25T00:31:28.715Z,9.10
2022-12-25T00:33:57.359Z,9.10
2022-12-25T00:36:26.182Z,9.14
2022-12-25T00:38:56.048Z,9.14
2022-12-25T00:41:39.797Z,9.14
2022-12-25T00:44:09.796Z,9.10
2022-12-25T00:46:38.724Z,9.11
2022-12-25T00:49:08.100Z,9.09
2022-12-25T00:51:36.616Z,9.17
2022-12-25T00:54:06.622Z,9.10
2022-12-25T00:56:35.512Z,9.10
2022-12-25T00:59:04.456Z,9.06
2022-12-25T01:01:33.544Z,9.03
2022-12-25T01:04:02.512Z,9.02
2022-12-25T01:06:31.391Z,9.07
2022-12-25T01:09:18.136Z,9.10
2022-12-25T01:11:48.066Z,9.05
2022-12-25T01:14:16.759Z,9.06
2022-12-25T01:16:45.381Z,9.13
2022-12-25T01:19:14.033Z,9.18
2022-12-25T01:21:42.631Z,9.21
2022-12-25T01:24:11.246Z,9.15
2022-12-25T01:26:39.808Z,9.14
2022-12-25T01:29:09.660Z,9.12
2022-12-25T01:31:38.257Z,9.06
2022-12-25T01:34:07.238Z,9.04
2022-12-25T01:36:35.740Z,9.12
2022-12-25T01:39:05.311Z,9.08
2022-12-25T01:41:33.832Z,9.13
2022-12-25T01:44:06.687Z,9.13
2022-12-25T01:46:37.427Z,9.18
2022-12-25T01:49:12.760Z,9.16
2022-12-25T01:51:47.402Z,9.10
2022-12-25T01:54:21.501Z,9.04
2022-12-25T01:56:54.580Z,9.06
2022-12-25T01:59:25.660Z,9.08
2022-12-25T02:01:55.770Z,9.04
2022-12-25T02:04:38.775Z,9.03
2022-12-25T02:07:14.219Z,8.94
2022-12-25T02:09:44.400Z,8.95
2022-12-25T02:12:20.284Z,8.90
2022-12-25T02:14:51.312Z,8.93
2022-12-25T02:17:32.475Z,8.82
2022-12-25T02:21:04.298Z,8.90
2022-12-25T02:24:17.317Z,8.83
2022-12-25T02:27:32.546Z,8.76
2022-12-25T02:30:08.159Z,8.70
2022-12-25T02:32:46.383Z,8.65
2022-12-25T02:35:20.749Z,8.64
2022-12-25T02:37:57.599Z,8.54
2022-12-25T02:40:32.941Z,8.53
2022-12-25T02:43:25.826Z,8.46
2022-12-25T02:46:18.969Z,8.51
2022-12-25T02:49:12.009Z,8.42
2022-12-25T02:52:06.433Z,8.46
2022-12-25T02:55:00.711Z,8.51
2022-12-25T02:57:53.859Z,8.46
2022-12-25T03:00:40.045Z,8.52
2022-12-25T03:03:33.151Z,8.51
2022-12-25T03:06:22.841Z,8.49
2022-12-25T03:09:18.729Z,8.48
2022-12-25T03:11:54.560Z,8.55
2022-12-25T03:14:41.229Z,8.58
2022-12-25T03:17:10.106Z,8.42
2022-12-25T03:19:57.517Z,8.53
2022-12-25T03:22:47.698Z,8.51
2022-12-25T03:25:35.309Z,8.49
2022-12-25T03:28:06.474Z,8.48
2022-12-25T03:31:02.450Z,8.45
2022-12-25T03:34:09.056Z,8.43
2022-12-25T03:36:56.583Z,8.26
2022-12-25T03:39:54.378Z,8.24
2022-12-25T03:42:52.062Z,8.10
2022-12-25T03:45:57.654Z,8.04
2022-12-25T03:48:48.881Z,7.94
2022-12-25T03:51:42.068Z,7.81
2022-12-25T03:54:32.948Z,7.65
2022-12-25T03:57:19.952Z,7.61
2022-12-25T04:00:06.488Z,7.51
2022-12-25T04:02:56.517Z,7.44
2022-12-25T04:05:42.815Z,7.34
2022-12-25T04:08:29.030Z,7.41
2022-12-25T04:11:16.631Z,7.34
2022-12-25T04:14:02.647Z,7.35
2022-12-25T04:16:48.922Z,7.37
2022-12-25T04:19:35.146Z,7.44
2022-12-25T04:22:21.207Z,7.50
2022-12-25T04:25:07.488Z,7.53
2022-12-25T04:27:54.680Z,7.49
2022-12-25T04:30:40.655Z,7.42
2022-12-25T04:33:26.829Z,7.38
2022-12-25T04:36:10.497Z,7.37
2022-12-25T04:38:40.642Z,7.36
2022-12-25T04:41:14.544Z,7.37
2022-12-25T04:43:44.454Z,7.40
2022-12-25T04:46:13.115Z,7.36
2022-12-25T04:48:41.720Z,7.40
2022-12-25T04:51:17.403Z,7.39
2022-12-25T04:53:47.250Z,7.43
2022-12-25T04:56:17.060Z,7.39
2022-12-25T04:58:47.791Z,7.44
2022-12-25T05:01:17.213Z,7.39
2022-12-25T05:03:45.840Z,7.26
2022-12-25T05:06:14.451Z,7.23
2022-12-25T05:08:43.260Z,7.24
2022-12-25T05:11:14.944Z,7.27
2022-12-25T05:13:44.366Z,7.37
2022-12-25T05:16:18.040Z,7.37
2022-12-25T05:18:49.401Z,7.40
2022-12-25T05:21:18.972Z,7.42
2022-12-25T05:23:51.084Z,7.45
2022-12-25T05:26:22.284Z,7.47
2022-12-25T05:28:51.696Z,7.54
2022-12-25T05:31:23.004Z,7.55
2022-12-25T05:33:52.584Z,7.55
2022-12-25T05:36:21.446Z,7.59
2022-12-25T05:38:50.051Z,7.60
2022-12-25T05:41:18.689Z,7.64
2022-12-25T05:43:47.296Z,7.70
2022-12-25T05:46:16.043Z,7.70
2022-12-25T05:48:46.353Z,7.67
2022-12-25T05:51:16.291Z,7.75
2022-12-25T05:53:45.146Z,7.69
2022-12-25T05:56:13.806Z,7.67
2022-12-25T05:58:42.658Z,7.75
2022-12-25T06:01:17.048Z,7.75
2022-12-25T06:03:47.113Z,7.67
2022-12-25T06:06:16.164Z,7.69
2022-12-25T06:08:45.220Z,7.82
2022-12-25T06:11:15.936Z,7.83
2022-12-25T06:13:44.978Z,7.92
2022-12-25T06:16:14.041Z,8.01
2022-12-25T06:18:47.947Z,8.10
2022-12-25T06:25:23.650Z,8.21
2022-12-25T06:27:52.159Z,8.17
2022-12-25T06:30:21.096Z,8.26
2022-12-25T06:32:49.634Z,8.27
2022-12-25T06:35:19.705Z,8.31
2022-12-25T06:37:48.256Z,8.31
2022-12-25T06:40:17.397Z,8.34
2022-12-25T06:42:45.946Z,8.32
2022-12-25T06:45:14.594Z,8.29
2022-12-25T06:47:43.160Z,8.33
2022-12-25T06:50:11.934Z,8.37
2022-12-25T06:52:41.870Z,8.23
2022-12-25T06:59:36.944Z,8.19
2022-12-25T07:02:05.910Z,8.28
2022-12-25T07:04:40.921Z,8.36
2022-12-25T07:07:10.864Z,8.32
2022-12-25T07:09:42.612Z,8.40
2022-12-25T07:12:18.917Z,8.43
2022-12-25T07:14:50.200Z,8.40
2022-12-25T07:17:20.233Z,8.51
2022-12-25T07:19:48.937Z,8.48
2022-12-25T07:22:18.223Z,8.46
2022-12-25T07:24:48.145Z,8.50
2022-12-25T07:27:16.674Z,8.54
2022-12-25T07:29:45.239Z,8.58
2022-12-25T07:32:13.944Z,8.47
2022-12-25T07:34:42.486Z,8.56
2022-12-25T07:37:11.447Z,8.57
2022-12-25T07:39:40.721Z,8.57
2022-12-25T07:42:10.827Z,8.57
2022-12-25T07:44:39.640Z,8.55
2022-12-25T07:47:08.267Z,8.60
2022-12-25T07:49:37.652Z,8.60
2022-12-25T07:52:06.530Z,8.66
2022-12-25T07:54:35.124Z,8.72
2022-12-25T07:57:03.667Z,8.73
2022-12-25T07:59:33.698Z,8.79
2022-12-25T08:02:02.432Z,8.83
2022-12-25T08:04:31.304Z,8.90
2022-12-25T08:07:00.022Z,8.94
2022-12-25T08:09:28.837Z,9.01
2022-12-25T08:11:57.532Z,9.12
2022-12-25T08:14:26.135Z,9.09
2022-12-25T08:16:56.207Z,9.01
2022-12-25T08:19:24.946Z,9.07
2022-12-25T08:21:53.509Z,9.25
2022-12-25T08:24:22.602Z,9.30
2022-12-25T08:26:51.235Z,9.32
2022-12-25T08:29:19.975Z,9.23
2022-12-25T08:31:48.616Z,9.18
2022-12-25T08:34:19.352Z,9.39
2022-12-25T08:36:48.921Z,9.31
2022-12-25T08:39:17.565Z,9.41
2022-12-25T08:41:46.627Z,9.59
2022-12-25T08:44:15.451Z,9.66
2022-12-25T08:46:44.197Z,9.59
2022-12-25T08:49:13.034Z,9.78
2022-12-25T08:51:45.508Z,9.78
2022-12-25T08:54:14.109Z,9.74
2022-12-25T08:56:42.633Z,9.81
2022-12-25T08:59:11.834Z,9.68
2022-12-25T09:01:40.592Z,9.68
2022-12-25T09:04:09.436Z,9.57
2022-12-25T09:06:37.946Z,9.67
2022-12-25T09:09:08.057Z,9.59
2022-12-25T09:11:36.958Z,9.71
2022-12-25T09:14:05.975Z,9.70
2022-12-25T09:16:34.726Z,9.72
2022-12-25T09:19:03.957Z,9.62
2022-12-25T09:21:32.883Z,9.50
2022-12-25T09:24:01.504Z,9.49
2022-12-25T09:26:31.502Z,9.31
2022-12-25T09:29:00.174Z,9.33
2022-12-25T09:31:28.998Z,9.40
2022-12-25T09:33:59.453Z,9.54
2022-12-25T09:36:28.819Z,9.73
2022-12-25T09:38:57.515Z,9.93
2022-12-25T09:41:35.333Z,10.09
2022-12-25T09:44:10.992Z,10.15
2022-12-25T09:46:46.054Z,10.29
2022-12-25T09:49:24.962Z,10.37
2022-12-25T09:52:04.261Z,10.16
2022-12-25T09:54:45.900Z,10.39
2022-12-25T09:57:16.579Z,10.24
2022-12-25T09:59:47.609Z,10.28
2022-12-25T10:02:43.743Z,10.10
2022-12-25T10:05:53.257Z,10.29
2022-12-25T10:08:40.771Z,10.47
2022-12-25T10:11:27.830Z,10.56
2022-12-25T10:14:22.000Z,10.78
2022-12-25T10:17:07.588Z,10.98
2022-12-25T10:19:47.881Z,11.09
2022-12-25T10:22:27.803Z,11.01
2022-12-25T10:25:02.033Z,11.15
2022-12-25T10:27:35.733Z,11.16
2022-12-25T10:30:15.926Z,11.44
2022-12-25T10:32:46.498Z,11.52
2022-12-25T10:35:19.289Z,11.47
2022-12-25T10:37:56.176Z,11.47
2022-12-25T10:40:41.605Z,11.55
2022-12-25T10:43:17.853Z,11.58
2022-12-25T10:45:50.813Z,11.54
2022-12-25T10:48:27.555Z,11.33
2022-12-25T10:50:57.646Z,11.44
2022-12-25T10:53:30.162Z,11.62
2022-12-25T10:56:01.836Z,11.79
2022-12-25T10:58:32.393Z,11.70
2022-12-25T11:01:07.061Z,11.47
2022-12-25T11:03:39.188Z,11.33
2022-12-25T11:06:24.523Z,11.20
2022-12-25T11:08:57.565Z,11.25
2022-12-25T11:11:28.359Z,10.99
2022-12-25T11:14:01.402Z,10.99
2022-12-25T11:16:37.817Z,11.01
2022-12-25T11:19:29.782Z,11.03
2022-12-25T11:22:02.112Z,10.99
2022-12-25T11:24:33.107Z,10.97
2022-12-25T11:27:07.163Z,11.03
2022-12-25T11:29:47.347Z,11.17
2022-12-25T11:32:23.650Z,11.35
2022-12-25T11:34:54.471Z,11.46
2022-12-25T11:37:32.500Z,11.57
2022-12-25T11:40:01.703Z,11.64
2022-12-25T11:42:36.254Z,11.77
2022-12-25T11:45:13.398Z,11.96
2022-12-25T11:47:50.582Z,12.21
2022-12-25T11:50:28.905Z,12.55
2022-12-25T11:53:01.851Z,12.96
2022-12-25T11:55:41.160Z,13.23
2022-12-25T11:58:19.502Z,12.91
2022-12-25T12:00:53.509Z,12.99
2022-12-25T12:03:29.049Z,13.17
2022-12-25T12:06:04.239Z,13.06
2022-12-25T12:08:35.555Z,12.77
2022-12-25T12:11:17.994Z,12.67
2022-12-25T12:14:18.869Z,12.82
2022-12-25T12:16:47.837Z,12.95
2022-12-25T12:19:29.653Z,12.92
2022-12-25T12:22:01.863Z,12.84
2022-12-25T12:24:39.338Z,12.64
2022-12-25T12:27:23.788Z,12.87
2022-12-25T12:29:57.266Z,13.12
2022-12-25T12:32:44.592Z,13.23
2022-12-25T12:35:24.049Z,12.97
2022-12-25T12:37:57.428Z,12.99
2022-12-25T12:40:34.631Z,12.94
2022-12-25T12:43:04.867Z,13.04
2022-12-25T12:45:38.671Z,13.09
2022-12-25T12:48:18.353Z,13.20
2022-12-25T12:50:48.371Z,13.31
2022-12-25T12:53:31.624Z,13.09
2022-12-25T12:56:21.424Z,13.15
2022-12-25T12:58:51.745Z,12.79
2022-12-25T13:01:46.416Z,12.60
2022-12-25T13:04:55.738Z,12.29
2022-12-25T13:07:49.293Z,12.26
2022-12-25T13:10:33.287Z,12.50
2022-12-25T13:13:08.035Z,12.56
2022-12-25T13:15:38.560Z,12.68
2022-12-25T13:18:15.387Z,12.93
2022-12-25T13:20:55.010Z,13.08
2022-12-25T13:23:30.751Z,13.21
2022-12-25T13:26:02.273Z,13.24
2022-12-25T13:28:33.844Z,13.04
2022-12-25T13:31:12.421Z,12.86
2022-12-25T13:33:42.372Z,12.79
2022-12-25T13:36:14.915Z,12.70
2022-12-25T13:38:51.021Z,12.57
2022-12-25T13:41:40.291Z,12.51
2022-12-25T13:44:20.674Z,12.57
2022-12-25T13:46:49.456Z,12.54
2022-12-25T13:49:21.865Z,12.72
2022-12-25T13:51:51.927Z,12.72
2022-12-25T13:54:22.032Z,12.76
2022-12-25T13:56:54.899Z,12.62
2022-12-25T13:59:26.900Z,12.59
2022-12-25T14:01:57.731Z,12.54
2022-12-25T14:04:26.695Z,12.26
2022-12-25T14:06:55.431Z,12.20
2022-12-25T14:09:25.790Z,12.13
2022-12-25T14:11:54.958Z,11.98
2022-12-25T14:14:26.893Z,11.87
2022-12-25T14:16:59.648Z,11.78
2022-12-25T14:19:31.098Z,11.73
2022-12-25T14:22:06.009Z,11.58
2022-12-25T14:24:36.374Z,11.58
2022-12-25T14:27:08.752Z,11.64
2022-12-25T14:29:44.427Z,11.62
2022-12-25T14:32:18.444Z,11.71
2022-12-25T14:34:51.770Z,11.63
2022-12-25T14:37:26.416Z,11.56
2022-12-25T14:40:03.144Z,11.63
2022-12-25T14:42:36.079Z,11.65
2022-12-25T14:45:25.827Z,11.58
2022-12-25T14:47:58.051Z,11.69
2022-12-25T14:50:30.490Z,11.57
2022-12-25T14:53:01.096Z,11.48
2022-12-25T14:55:31.906Z,11.38
2022-12-25T14:58:04.560Z,11.27
2022-12-25T15:00:38.065Z,11.10
2022-12-25T15:03:19.624Z,10.99
2022-12-25T15:06:01.214Z,10.90
2022-12-25T15:08:32.777Z,10.78
2022-12-25T15:11:03.715Z,10.71
2022-12-25T15:13:34.189Z,10.67
2022-12-25T15:16:10.362Z,10.59
2022-12-25T15:18:43.377Z,10.48
2022-12-25T15:21:18.369Z,10.37
2022-12-25T15:23:47.737Z,10.36
2022-12-25T15:26:17.812Z,10.26
2022-12-25T15:28:46.598Z,10.26
2022-12-25T15:31:23.465Z,10.23
2022-12-25T15:33:52.895Z,10.14
2022-12-25T15:36:22.211Z,10.10
2022-12-25T15:38:51.395Z,10.05
2022-12-25T15:41:45.079Z,10.08
2022-12-25T15:44:15.287Z,10.16
2022-12-25T15:46:45.901Z,10.17
2022-12-25T15:49:16.286Z,10.13
2022-12-25T15:51:46.198Z,10.15
2022-12-25T15:54:14.841Z,10.07
2022-12-25T15:56:49.903Z,9.97
2022-12-25T15:59:25.401Z,9.89
2022-12-25T16:01:58.133Z,9.86
2022-12-25T16:04:31.385Z,9.84
2022-12-25T16:07:01.347Z,9.87
2022-12-25T16:09:29.971Z,9.97
2022-12-25T16:11:59.899Z,10.01
2022-12-25T16:14:28.466Z,10.02
2022-12-25T16:16:57.062Z,10.04
2022-12-25T16:19:25.767Z,10.10
2022-12-25T16:21:54.488Z,10.13
2022-12-25T16:24:24.163Z,10.08
2022-12-25T16:26:52.804Z,10.07
2022-12-25T16:29:22.956Z,10.04
2022-12-25T16:31:51.702Z,10.04
2022-12-25T16:34:20.413Z,10.07
2022-12-25T16:36:49.198Z,10.01
2022-12-25T16:39:18.048Z,9.97
2022-12-25T16:41:46.775Z,9.98
2022-12-25T16:44:15.437Z,9.97
2022-12-25T16:46:45.658Z,9.97
2022-12-25T16:49:14.331Z,9.97
2022-12-25T16:51:42.985Z,10.05
2022-12-25T16:54:11.516Z,10.03
2022-12-25T16:56:41.536Z,10.02
2022-12-25T16:59:10.948Z,10.05
2022-12-25T17:01:43.347Z,9.97
2022-12-25T17:04:14.208Z,9.92
2022-12-25T17:06:43.013Z,9.90
2022-12-25T17:09:12.059Z,9.80
2022-12-25T17:11:41.165Z,9.76
2022-12-25T17:14:11.978Z,9.67
2022-12-25T17:16:41.075Z,9.63
2022-12-25T17:19:20.229Z,9.65
2022-12-25T17:21:49.396Z,9.67
2022-12-25T17:24:19.187Z,9.72
2022-12-25T17:26:48.726Z,9.73
2022-12-25T17:29:21.964Z,9.65
2022-12-25T17:31:51.536Z,9.64
2022-12-25T17:34:21.722Z,9.55
2022-12-25T17:36:50.280Z,9.59
2022-12-25T17:39:18.962Z,9.67
2022-12-25T17:41:49.629Z,9.55
2022-12-25T17:44:18.349Z,9.54
2022-12-25T17:46:46.922Z,9.55
2022-12-25T17:49:18.080Z,9.58
2022-12-25T17:51:48.746Z,9.57
2022-12-25T17:54:17.472Z,9.51
2022-12-25T17:56:46.620Z,9.56
2022-12-25T17:59:18.634Z,9.57
2022-12-25T18:01:49.150Z,9.62
2022-12-25T18:04:18.342Z,9.62
2022-12-25T18:06:49.034Z,9.56
2022-12-25T18:09:18.917Z,9.57
2022-12-25T18:11:48.599Z,9.57
2022-12-25T18:14:18.259Z,9.54
2022-12-25T18:16:48.788Z,9.52
2022-12-25T18:19:18.492Z,9.46
2022-12-25T18:21:48.671Z,9.42
2022-12-25T18:24:17.618Z,9.35
2022-12-25T18:26:47.043Z,9.32
2022-12-25T18:29:16.484Z,9.26
2022-12-25T18:31:45.490Z,9.25
2022-12-25T18:34:14.187Z,9.18
2022-12-25T18:36:43.156Z,8.96
2022-12-25T18:39:14.489Z,8.93
2022-12-25T18:41:57.149Z,8.88
2022-12-25T18:44:25.722Z,8.93
2022-12-25T18:46:55.754Z,8.95
2022-12-25T18:49:24.638Z,8.94
2022-12-25T18:51:53.542Z,8.90
2022-12-25T18:54:46.394Z,8.81
2022-12-25T18:57:15.662Z,8.83
2022-12-25T18:59:44.752Z,8.85
2022-12-25T19:02:15.306Z,8.82
2022-12-25T19:04:44.773Z,8.75
2022-12-25T19:07:14.162Z,8.65
2022-12-25T19:09:44.594Z,8.56
2022-12-25T19:12:13.425Z,8.61
2022-12-25T19:14:47.446Z,8.65
2022-12-25T19:17:31.185Z,8.62
2022-12-25T19:20:02.179Z,8.56
2022-12-25T19:22:32.403Z,8.51
2022-12-25T19:25:03.307Z,8.53
2022-12-25T19:27:32.180Z,8.55
2022-12-25T19:30:00.861Z,8.49
2022-12-25T19:32:29.603Z,8.53
2022-12-25T19:35:04.430Z,8.55
2022-12-25T19:37:33.252Z,8.48
2022-12-25T19:40:04.245Z,8.51
2022-12-25T19:42:33.389Z,8.51
2022-12-25T19:45:03.124Z,8.45
2022-12-25T19:47:31.909Z,8.41
2022-12-25T19:50:03.159Z,8.43
2022-12-25T19:52:32.314Z,8.40
2022-12-25T19:55:02.577Z,8.46
2022-12-25T19:57:31.313Z,8.50
2022-12-25T19:59:59.933Z,8.41
2022-12-25T20:02:29.070Z,8.43
2022-12-25T20:04:57.887Z,8.49
2022-12-25T20:07:26.820Z,8.57
2022-12-25T20:09:55.564Z,8.54
2022-12-25T20:12:26.272Z,8.51
2022-12-25T20:14:55.186Z,8.56
2022-12-25T20:17:23.834Z,8.53
2022-12-25T20:19:52.659Z,8.59
2022-12-25T20:22:21.937Z,8.53
2022-12-25T20:24:50.746Z,8.47
2022-12-25T20:27:19.459Z,8.50
2022-12-25T20:29:49.531Z,8.45
2022-12-25T20:32:18.121Z,8.49
2022-12-25T20:34:46.643Z,8.49
2022-12-25T20:37:15.269Z,8.47
2022-12-25T20:39:43.799Z,8.35
2022-12-25T20:42:12.677Z,8.31
2022-12-25T20:44:41.461Z,8.31
2022-12-25T20:47:11.448Z,8.31
2022-12-25T20:49:40.157Z,8.37
2022-12-25T20:52:09.044Z,8.34
2022-12-25T20:54:38.200Z,8.30
2022-12-25T20:57:08.750Z,8.26
2022-12-25T20:59:38.059Z,8.33
2022-12-25T21:02:07.015Z,8.32
2022-12-25T21:04:37.272Z,8.33
2022-12-25T21:07:06.331Z,8.31
2022-12-25T21:09:35.200Z,8.30
2022-12-25T21:12:03.975Z,8.37
2022-12-25T21:14:33.050Z,8.31
2022-12-25T21:17:01.737Z,8.26
2022-12-25T21:19:30.455Z,8.22
2022-12-25T21:22:00.338Z,8.20
2022-12-25T21:24:28.970Z,8.14
2022-12-25T21:26:57.571Z,8.11
2022-12-25T21:29:26.155Z,8.18
2022-12-25T21:32:12.943Z,8.13
2022-12-25T21:34:41.631Z,8.09
2022-12-25T21:37:11.803Z,8.02
2022-12-25T21:39:40.651Z,8.11
2022-12-25T21:42:09.172Z,8.08
2022-12-25T21:44:38.027Z,8.05
2022-12-25T21:47:06.568Z,8.04
2022-12-25T21:49:52.911Z,8.01
2022-12-25T21:52:23.437Z,7.85
2022-12-25T21:54:53.725Z,7.81
2022-12-25T21:57:22.419Z,7.85
2022-12-25T21:59:50.991Z,7.90
2022-12-25T22:02:19.792Z,7.89
2022-12-25T22:04:48.578Z,7.77
2022-12-25T22:07:19.122Z,7.71
2022-12-25T22:09:52.212Z,7.66
2022-12-25T22:12:40.503Z,7.72
2022-12-25T22:15:11.340Z,7.65
2022-12-25T22:17:59.478Z,7.73
2022-12-25T22:20:31.433Z,7.74
2022-12-25T22:23:00.157Z,7.78
2022-12-25T22:25:30.265Z,7.78
2022-12-25T22:27:59.379Z,7.75
2022-12-25T22:30:30.738Z,7.70
2022-12-25T22:32:59.977Z,7.74
2022-12-25T22:35:28.471Z,7.77
2022-12-25T22:37:57.071Z,7.69
2022-12-25T22:40:25.621Z,7.66
2022-12-25T22:42:57.440Z,7.66
2022-12-25T22:45:26.504Z,7.66
2022-12-25T22:47:55.277Z,7.62
2022-12-25T22:50:24.427Z,7.63
2022-12-25T22:52:53.946Z,7.54
2022-12-25T22:55:22.649Z,7.46
2022-12-25T22:57:52.116Z,7.43
2022-12-25T23:00:22.479Z,7.34
2022-12-25T23:02:51.361Z,7.32
2022-12-25T23:05:20.230Z,7.26
2022-12-25T23:07:48.815Z,7.17
2022-12-25T23:10:17.471Z,7.18
2022-12-25T23:13:03.354Z,7.20
2022-12-25T23:15:33.841Z,7.16
2022-12-25T23:18:20.178Z,7.13
2022-12-25T23:21:08.268Z,7.10
2022-12-25T23:23:54.390Z,7.08
2022-12-25T23:26:23.342Z,7.05
2022-12-25T23:29:09.443Z,7.06
2022-12-25T23:31:42.817Z,6.99
2022-12-25T23:34:12.317Z,7.03
2022-12-25T23:36:40.821Z,7.08
2022-12-25T23:39:10.616Z,7.16
2022-12-25T23:41:40.088Z,7.23
2022-12-25T23:44:09.239Z,7.33
2022-12-25T23:46:40.770Z,7.39
2022-12-25T23:49:10.798Z,7.37
2022-12-25T23:51:44.061Z,7.38
2022-12-25T23:54:15.532Z,7.22
2022-12-25T23:56:45.054Z,7.20
2022-12-25T23:59:15.412Z,7.14
